Station: Karoonda

  Atmospheric Gas Attenuation - ITU Rec 676-11   --------------- db/100km ---------------
Date Time Temp RH % AH g/m3 Dew Point Wind Direction Speed kph Gust kph Barometer mB Rainfall Since 9am 24GHz 47GHz 76GHz 122GHz 134GHz 241GHz
16 09:00 6.5 88 6.6 4.7 0 1013.1 0 15.6 24.7 35.1 91.9 80.1 273.3
14 09:00 5.1 99 6.78 4.9 0 1013.1 0.2 16.1 25.4 36.5 95.6 84.0 287.0
13 09:00 8 99 8.19 7.8 0 1013.1 0.4 19.0 26.9 41.1 107.8 100.3 344.3
12 09:00 9.4 95 8.59 8.6 17 1013.1 4 19.8 27.2 42.0 110.4 104.0 357.6
10 09:00 8.1 82 6.83 5.2 0 1013.1 0 16.0 24.6 35.3 92.5 81.5 278.5
09 09:00 6.1 97 7.09 5.7 6 1013.1 0 16.7 25.6 37.3 97.8 87.2 298.3
08 09:00 8.5 86 7.35 6.3 2 1013.1 0 17.2 25.4 37.3 97.7 88.1 301.5
06 09:00 6.7 91 6.92 5.3 0 1013.1 0 16.3 25.2 36.4 95.2 84.2 287.9
05 09:00 11.1 92 9.27 9.9 7 1013.1 0.8 21.2 27.8 44.0 115.6 111.2 382.9
04 09:00 10 95 8.93 9.2 4 1013.1 0.6 20.5 27.6 43.2 113.4 108.0 371.5
02 09:00 8.7 89 7.7 7 2 1013.1 2 17.9 25.9 38.6 101.3 92.6 317.5
01 09:00 9.4 61 5.52 2.3 0 1013.1 0 13.2 22.2 29.7 77.5 63.4 215.3
30 09:00 7.6 72 5.8 2.9 6 1013.1 0 13.9 23.1 31.5 82.1 68.5 232.8
29 09:00 2.5 94 5.41 1.7 0 1013.1 0 13.2 23.8 31.9 83.3 67.8 229.7
28 09:00 5.8 82 5.88 2.9 0 1013.1 0 14.1 23.7 32.5 84.9 71.1 241.9
27 09:00 7.8 86 7.02 5.6 0 1013.1 0.4 16.5 25.0 36.3 94.9 84.4 288.6
25 09:00 7.9 80 6.57 4.7 2 1013.1 0 15.5 24.3 34.4 89.9 78.2 267.1
24 09:00 10.1 99 9.36 9.9 0 1013.1 0.4 21.4 28.3 45.0 118.2 113.9 392.4
23 09:00 11.2 95 9.63 10.4 7 1013.1 3 21.9 28.4 45.5 119.6 116.1 400.2
21 09:00 1013.1
19 09:00 11.4 64 6.57 4.8 7 1013.1 0 15.4 23.3 32.9 86.1 74.8 255.6
18 09:00 8 91 7.53 6.7 6 1013.1 0 17.6 25.8 38.3 100.3 91.1 312.1
17 09:00 8.8 99 8.62 8.6 0 1013.1 0.2 19.9 27.4 42.5 111.6 105.3 361.9
16 09:00 12.1 89 9.55 10.4 0 1013.1 1 21.7 28.0 44.6 117.3 113.6 391.6
15 09:00 13.4 86 10 11.1 4 1013.1 0.2 22.6 28.3 45.8 120.4 118.0 406.9
14 09:00 11.5 82 8.47 8.5 6 1013.1 3 19.4 26.4 40.4 106.1 99.6 342.4
12 09:00 4.6 97 6.42 4.1 0 1013.1 0 15.3 24.9 35.2 92.2 79.6 271.4
11 09:00 2.8 93 5.46 1.8 0 1013.1 0 13.3 23.8 32.0 83.6 68.2 231.2
10 09:00 3.7 97 6.05 3.2 0 1013.1 0 14.5 24.6 34.1 89.1 75.4 256.6
08 09:00 3.2 93 5.61 2.2 0 1013.1 0 13.6 24.0 32.5 84.8 69.9 237.1
07 09:00 7.7 68 5.52 2.2 0 1013.1 0 13.3 22.6 30.3 79.1 64.8 219.9
06 09:00 7.5 93 7.45 6.4 0 1013.1 0 17.4 25.8 38.2 100.1 90.6 310.3
04 09:00 5.1 99 6.78 4.9 0 1013.1 0 16.1 25.4 36.5 95.6 84.0 287.0
03 09:00 12 76 8.1 7.9 2 1013.1 0.4 18.6 25.6 38.7 101.4 94.0 322.8
02 09:00 10.1 99 9.36 9.9 0 1013.1 0.4 21.4 28.3 45.0 118.2 113.9 392.4
31 09:00 10.9 91 9.05 9.5 6 1013.1 0.2 20.7 27.5 43.2 113.4 108.4 373.1
30 09:00 1013.1
29 09:00 8.6 93 7.99 7.5 0 1013.1 0.1 18.5 26.4 39.9 104.7 96.7 331.9
27 09:00 10.6 76 7.42 6.6 6 1013.1 0 17.2 24.9 36.6 95.9 86.6 296.8
26 09:00 7.4 91 7.24 6.1 0 1013.1 0 17.0 25.5 37.4 97.9 87.8 300.5
25 09:00 8.4 88 7.47 6.5 0 1013.1 0.2 17.4 25.6 37.8 99.1 89.8 307.6
23 09:00 12.1 99 10.62 11.9 2 1013.1 3 24.0 29.9 49.3 129.7 128.9 444.9
22 09:00 10.6 92 8.98 9.4 0 1013.1 0.6 20.6 27.5 43.0 113.1 107.8 371.1
19 09:00 12.1 69 7.4 6.7 6 1013.1 0 17.1 24.4 35.8 93.9 84.7 290.3
18 09:00 10.2 79 7.52 6.8 0 1013.1 0 17.4 25.2 37.2 97.4 88.4 303.0
17 09:00 11.7 91 9.52 10.3 0 1013.1 0 21.7 28.1 44.7 117.6 113.8 392.2
15 09:00 7 97 7.52 6.6 0 1013.1 0 17.6 26.1 38.7 101.5 92.1 315.7
14 09:00 10.1 78 7.38 6.5 0 1013.1 0.1 17.1 25.0 36.7 96.0 86.6 296.8
13 09:00 10.3 96 9.2 9.7 0 1013.1 3 21.1 28.0 44.2 116.0 111.4 383.4
12 09:00 13.8 58 6.91 5.8 9 1013.1 0 16.0 23.2 33.2 86.9 76.8 262.7
11 09:00 10 92 8.65 8.8 0 1013.1 0 19.9 27.1 42.0 110.2 104.1 357.8
10 09:00 9.2 95 8.49 8.4 0 1013.1 0.8 19.6 27.1 41.7 109.5 102.9 353.6
09 09:00 10.5 84 8.15 8 11 1013.1 8 18.8 26.1 39.6 103.9 96.5 331.5
08 09:00 9 1013.1 0.2
07 09:00 17.2 38 5.56 2.8 4 1013.1 0 13.0 20.5 27.2 70.7 58.0 197.1
06 09:00 11.9 66 6.99 5.9 7 1013.1 0 16.2 23.9 34.3 89.8 79.7 272.6
05 09:00 9 84 7.41 6.4 0 1013.1 0 17.3 25.3 37.3 97.7 88.3 302.5
03 09:00 12.1 70 7.51 6.9 0 1013.1 2 17.3 24.6 36.3 95.0 86.1 295.3
02 09:00 14.6 92 11.51 13.3 37 1013.1 10 25.8 30.6 51.6 135.9 137.4 475.0
01 09:00 11.5 94 9.71 10.5 6 1013.1 13 22.1 28.5 45.7 120.1 116.8 402.6
29 09:00 12.8 99 11.09 12.6 0 1013.1 6 25.0 30.5 50.9 134.1 134.5 464.7
28 09:00 11.9 87 9.22 9.9 7 1013.1 0 21.0 27.5 43.3 113.9 109.3 376.5
27 09:00 10 99 9.3 9.8 0 1013.1 0.2 21.3 28.2 44.8 117.6 113.2 389.9
26 09:00 14.8 88 11.15 12.8 17 1013.1 32 25.0 29.9 49.9 131.3 131.9 455.7
25 09:00 16.1 80 10.97 12.7 1013.1 0 24.5 29.1 48.3 127.1 127.2 439.4
24 09:00 15.2 96 12.46 14.5 0 1013.1 6 27.8 32.0 55.4 146.1 150.2 519.5
23 09:00 18 56 8.6 9.2 0 1013.1 0 19.4 24.7 37.8 99.0 93.2 321.0
21 09:00 16 40 5.45 2.5 7 1013.1 0 12.8 20.6 27.2 70.7 57.6 195.7
20 09:00 18.9 60 9.72 11 19 1013.1 0.8 21.7 26.2 41.6 109.4 106.3 366.6
18 09:00 14.5 79 9.83 10.9 2 1013.1 0 22.2 27.7 44.4 116.9 114.0 393.0
17 09:00 13.8 89 10.6 12.1 0 1013.1 0.1 23.9 29.2 48.1 126.7 125.8 434.2
16 09:00 18.1 85 13.13 15.6 20 1013.1 0 29.0 32.2 56.3 148.5 154.1 533.7
15 09:00 21.5 25 4.71 0.6 15 1013.1 0 11.1 18.5 23.1 59.9 46.1 155.9
13 09:00 13.1 65 7.42 6.7 9 1013.1 0 17.1 24.2 35.5 92.9 83.9 287.6
12 09:00 13.2 54 6.2 4.2 7 1013.1 0 14.5 22.3 30.8 80.5 68.6 234.0
09 09:00 14.1 84 10.19 11.5 0 1013.1 0.1 23.0 28.4 46.2 121.5 119.5 412.4
08 09:00 13.9 67 8.03 7.9 11 1013.1 1 18.4 24.9 37.5 98.3 90.8 312.0
07 09:00 13.8 76 9.06 9.7 0 1013.1 0 20.6 26.6 41.7 109.4 104.5 359.9
05 09:00 15.6 85 11.3 13.1 1013.1 25.3 29.8 50.0 131.7 132.6 458.4
04 09:00 12.7 81 9.02 9.6 22 1013.1 2 20.5 26.9 42.1 110.5 105.5 363.1
03 09:00 18.2 79 12.28 14.6 0 1013.1 0 27.2 30.6 52.5 138.4 141.8 490.7
02 09:00 15.6 91 12.1 14.2 2 1013.1 9 27.0 31.3 53.5 141.0 144.1 498.5
01 09:00 13.8 73 8.7 9.1 0 1013.1 0 19.8 26.1 40.2 105.5 99.7 343.1
31 09:00 12.1 92 9.87 10.8 0 1013.1 0 22.4 28.5 46.0 121.0 118.2 407.3
28 09:00 15.9 59 7.99 8 0 1013.1 0 18.2 24.3 36.4 95.4 88.0 302.5
27 09:00 12.4 82 8.96 9.4 0 1013.1 0 20.4 26.9 42.0 110.3 105.1 361.6
25 09:00 12 70 7.46 6.8 6 1013.1 0 17.2 24.6 36.1 94.6 85.6 293.4
23 09:00 11 73 7.31 6.3 7 1013.1 0 17.0 24.6 36.0 94.2 84.7 290.3
22 09:00 16 81 11.04 12.8 11 1013.1 0 24.7 29.3 48.6 128.1 128.3 443.3
21 09:00 14.1 79 9.59 10.5 0 1013.1 0 21.7 27.4 43.7 114.8 111.3 383.6
20 09:00 15.8 90 12.11 14.2 2 1013.1 0 27.0 31.2 53.4 140.8 143.9 497.7
19 09:00 26 33 8.03 8.7 17 1013.1 0 17.8 21.9 32.3 84.6 78.0 268.6
16 09:00 15.8 69 9.29 10.1 4 1013.1 0 21.0 26.4 41.5 109.1 104.9 361.4
15 09:00 13.2 67 7.69 7.3 11 1013.1 0 17.7 24.6 36.5 95.6 87.2 299.3
14 09:00 13.5 74 8.66 9 13 1013.1 0 19.7 26.1 40.2 105.5 99.6 342.5
13 09:00 20 72 12.44 14.9 19 1013.1 0.2 27.4 30.3 52.0 137.0 140.7 487.1
12 09:00 23.1 51 10.54 12.4 13 1013.1 0 23.2 26.2 42.6 111.9 110.8 383.0
11 09:00 21 66 12.09 14.5 9 1013.1 0 26.6 29.4 49.9 131.4 134.1 464.4
09 09:00 15.5 59 7.8 7.5 22 1013.1 0 17.8 24.2 35.9 94.0 86.1 295.6
08 09:00 13.7 87 10.3 11.6 4 1013.1 0 23.2 28.8 46.9 123.4 121.7 420.0

Last Refresh: 17-Jul-2020 01:40:32

Most of the information presented on this site is sourced from the Bureau of Meteorology.  Copyright in all material sourced from the Bureau of Meteorology resides with the Commonwealth of Australia.